sensor_id;sensor_type;location;lat;lon;timestamp;temperature;humidity
52273;DHT22;38227;50.942;4.016;2023-05-03T00:02:06;9.30;99.90
52273;DHT22;38227;50.942;4.016;2023-05-03T00:04:39;9.30;99.90
52273;DHT22;38227;50.942;4.016;2023-05-03T00:07:07;9.40;99.90
52273;DHT22;38227;50.942;4.016;2023-05-03T00:09:38;9.50;99.90
52273;DHT22;38227;50.942;4.016;2023-05-03T00:12:07;9.50;99.90
52273;DHT22;38227;50.942;4.016;2023-05-03T00:14:39;9.40;99.90
52273;DHT22;38227;50.942;4.016;2023-05-03T00:17:06;9.30;99.90
52273;DHT22;38227;50.942;4.016;2023-05-03T00:19:39;9.20;99.90
52273;DHT22;38227;50.942;4.016;2023-05-03T00:22:07;9.20;99.90
52273;DHT22;38227;50.942;4.016;2023-05-03T00:24:47;9.20;99.90
52273;DHT22;38227;50.942;4.016;2023-05-03T00:27:17;9.20;99.90
52273;DHT22;38227;50.942;4.016;2023-05-03T00:29:50;9.20;99.90
52273;DHT22;38227;50.942;4.016;2023-05-03T00:32:20;9.10;99.90
52273;DHT22;38227;50.942;4.016;2023-05-03T00:34:57;9.10;99.90
52273;DHT22;38227;50.942;4.016;2023-05-03T00:37:25;9.00;99.90
52273;DHT22;38227;50.942;4.016;2023-05-03T00:39:58;8.90;99.90
52273;DHT22;38227;50.942;4.016;2023-05-03T00:42:26;8.90;99.90
52273;DHT22;38227;50.942;4.016;2023-05-03T00:44:58;8.90;99.90
52273;DHT22;38227;50.942;4.016;2023-05-03T00:47:26;8.90;99.90
52273;DHT22;38227;50.942;4.016;2023-05-03T00:49:58;8.90;99.90
52273;DHT22;38227;50.942;4.016;2023-05-03T00:52:26;8.90;99.90
52273;DHT22;38227;50.942;4.016;2023-05-03T00:54:56;8.80;99.90
52273;DHT22;38227;50.942;4.016;2023-05-03T00:57:25;8.80;99.90
52273;DHT22;38227;50.942;4.016;2023-05-03T00:59:56;8.70;99.90
52273;DHT22;38227;50.942;4.016;2023-05-03T01:02:26;8.70;99.90
52273;DHT22;38227;50.942;4.016;2023-05-03T01:04:59;8.70;99.90
52273;DHT22;38227;50.942;4.016;2023-05-03T01:10:51;8.70;99.90
52273;DHT22;38227;50.942;4.016;2023-05-03T01:19:59;8.60;99.90
52273;DHT22;38227;50.942;4.016;2023-05-03T01:25:42;8.60;99.90
52273;DHT22;38227;50.942;4.016;2023-05-03T01:28:10;8.50;99.90
52273;DHT22;38227;50.942;4.016;2023-05-03T01:30:39;8.40;99.90
52273;DHT22;38227;50.942;4.016;2023-05-03T01:33:36;8.40;99.90
52273;DHT22;38227;50.942;4.016;2023-05-03T01:36:24;8.40;99.90
52273;DHT22;38227;50.942;4.016;2023-05-03T01:38:58;8.30;99.90
52273;DHT22;38227;50.942;4.016;2023-05-03T01:41:26;8.40;99.90
52273;DHT22;38227;50.942;4.016;2023-05-03T01:43:56;8.40;99.90
52273;DHT22;38227;50.942;4.016;2023-05-03T01:46:25;8.30;99.90
52273;DHT22;38227;50.942;4.016;2023-05-03T01:48:54;8.40;99.90
52273;DHT22;38227;50.942;4.016;2023-05-03T01:51:25;8.40;99.90
52273;DHT22;38227;50.942;4.016;2023-05-03T01:53:54;8.30;99.90
52273;DHT22;38227;50.942;4.016;2023-05-03T01:56:26;8.40;99.90
52273;DHT22;38227;50.942;4.016;2023-05-03T01:58:54;8.30;99.90
52273;DHT22;38227;50.942;4.016;2023-05-03T02:01:22;8.30;99.90
52273;DHT22;38227;50.942;4.016;2023-05-03T02:03:50;8.20;99.90
52273;DHT22;38227;50.942;4.016;2023-05-03T02:06:23;8.20;99.90
52273;DHT22;38227;50.942;4.016;2023-05-03T02:08:51;8.20;99.90
52273;DHT22;38227;50.942;4.016;2023-05-03T02:11:23;8.20;99.90
52273;DHT22;38227;50.942;4.016;2023-05-03T02:13:51;8.20;99.90
52273;DHT22;38227;50.942;4.016;2023-05-03T02:16:22;8.10;99.90
52273;DHT22;38227;50.942;4.016;2023-05-03T02:18:51;8.10;99.90
52273;DHT22;38227;50.942;4.016;2023-05-03T02:21:25;8.10;99.90
52273;DHT22;38227;50.942;4.016;2023-05-03T02:23:53;8.00;99.90
52273;DHT22;38227;50.942;4.016;2023-05-03T02:26:24;8.00;99.90
52273;DHT22;38227;50.942;4.016;2023-05-03T02:28:57;8.00;99.90
52273;DHT22;38227;50.942;4.016;2023-05-03T02:31:28;7.90;99.90
52273;DHT22;38227;50.942;4.016;2023-05-03T02:33:58;7.90;99.90
52273;DHT22;38227;50.942;4.016;2023-05-03T02:36:36;7.90;99.90
52273;DHT22;38227;50.942;4.016;2023-05-03T02:39:04;8.00;99.90
52273;DHT22;38227;50.942;4.016;2023-05-03T02:41:37;8.00;99.90
52273;DHT22;38227;50.942;4.016;2023-05-03T02:44:05;8.10;99.90
52273;DHT22;38227;50.942;4.016;2023-05-03T02:46:37;8.20;99.90
52273;DHT22;38227;50.942;4.016;2023-05-03T02:49:06;8.30;99.90
52273;DHT22;38227;50.942;4.016;2023-05-03T02:51:38;8.20;99.90
52273;DHT22;38227;50.942;4.016;2023-05-03T02:54:06;8.00;99.90
52273;DHT22;38227;50.942;4.016;2023-05-03T02:56:39;8.00;99.90
52273;DHT22;38227;50.942;4.016;2023-05-03T02:59:07;7.90;99.90
52273;DHT22;38227;50.942;4.016;2023-05-03T03:01:38;7.90;99.90
52273;DHT22;38227;50.942;4.016;2023-05-03T03:04:06;7.90;99.90
52273;DHT22;38227;50.942;4.016;2023-05-03T03:06:38;7.90;99.90
52273;DHT22;38227;50.942;4.016;2023-05-03T03:09:06;7.70;99.90
52273;DHT22;38227;50.942;4.016;2023-05-03T03:11:39;7.80;99.90
52273;DHT22;38227;50.942;4.016;2023-05-03T03:14:07;7.80;99.90
52273;DHT22;38227;50.942;4.016;2023-05-03T03:16:45;7.80;99.90
52273;DHT22;38227;50.942;4.016;2023-05-03T03:19:13;7.70;99.90
52273;DHT22;38227;50.942;4.016;2023-05-03T03:21:46;7.60;99.90
52273;DHT22;38227;50.942;4.016;2023-05-03T03:24:14;7.60;99.90
52273;DHT22;38227;50.942;4.016;2023-05-03T03:26:52;7.50;99.90
52273;DHT22;38227;50.942;4.016;2023-05-03T03:29:20;7.50;99.90
52273;DHT22;38227;50.942;4.016;2023-05-03T03:31:52;7.50;99.90
52273;DHT22;38227;50.942;4.016;2023-05-03T03:34:20;7.50;99.90
52273;DHT22;38227;50.942;4.016;2023-05-03T03:36:52;7.60;99.90
52273;DHT22;38227;50.942;4.016;2023-05-03T03:39:20;7.60;99.90
52273;DHT22;38227;50.942;4.016;2023-05-03T03:41:52;7.50;99.90
52273;DHT22;38227;50.942;4.016;2023-05-03T03:44:20;7.50;99.90
52273;DHT22;38227;50.942;4.016;2023-05-03T03:46:53;7.50;99.90
52273;DHT22;38227;50.942;4.016;2023-05-03T03:49:21;7.40;99.90
52273;DHT22;38227;50.942;4.016;2023-05-03T03:51:53;7.40;99.90
52273;DHT22;38227;50.942;4.016;2023-05-03T03:54:21;7.40;99.90
52273;DHT22;38227;50.942;4.016;2023-05-03T03:56:53;7.40;99.90
52273;DHT22;38227;50.942;4.016;2023-05-03T03:59:20;7.30;99.90
52273;DHT22;38227;50.942;4.016;2023-05-03T04:01:49;7.30;99.90
52273;DHT22;38227;50.942;4.016;2023-05-03T04:04:21;7.30;99.90
52273;DHT22;38227;50.942;4.016;2023-05-03T04:06:49;7.30;99.90
52273;DHT22;38227;50.942;4.016;2023-05-03T04:09:22;7.40;99.90
52273;DHT22;38227;50.942;4.016;2023-05-03T04:11:50;7.30;99.90
52273;DHT22;38227;50.942;4.016;2023-05-03T04:14:18;7.30;99.90
52273;DHT22;38227;50.942;4.016;2023-05-03T04:16:50;7.30;99.90
52273;DHT22;38227;50.942;4.016;2023-05-03T04:19:18;7.30;99.90
52273;DHT22;38227;50.942;4.016;2023-05-03T04:21:52;7.30;99.90
52273;DHT22;38227;50.942;4.016;2023-05-03T04:24:20;7.30;99.90
52273;DHT22;38227;50.942;4.016;2023-05-03T04:26:52;7.30;99.90
52273;DHT22;38227;50.942;4.016;2023-05-03T04:29:20;7.30;99.90
52273;DHT22;38227;50.942;4.016;2023-05-03T04:31:47;7.30;99.90
52273;DHT22;38227;50.942;4.016;2023-05-03T04:34:15;7.40;99.90
52273;DHT22;38227;50.942;4.016;2023-05-03T04:36:47;7.30;99.90
52273;DHT22;38227;50.942;4.016;2023-05-03T04:39:15;7.40;99.90
52273;DHT22;38227;50.942;4.016;2023-05-03T04:41:49;7.40;99.90
52273;DHT22;38227;50.942;4.016;2023-05-03T04:44:27;7.40;99.90
52273;DHT22;38227;50.942;4.016;2023-05-03T04:46:55;7.40;99.90
52273;DHT22;38227;50.942;4.016;2023-05-03T04:49:24;7.50;99.90
52273;DHT22;38227;50.942;4.016;2023-05-03T04:52:00;7.50;99.90
52273;DHT22;38227;50.942;4.016;2023-05-03T04:54:28;7.50;99.90
52273;DHT22;38227;50.942;4.016;2023-05-03T04:57:00;7.60;99.90
52273;DHT22;38227;50.942;4.016;2023-05-03T04:59:28;7.70;99.90
52273;DHT22;38227;50.942;4.016;2023-05-03T05:01:56;7.70;99.90
52273;DHT22;38227;50.942;4.016;2023-05-03T05:04:24;7.90;99.90
52273;DHT22;38227;50.942;4.016;2023-05-03T05:06:53;8.30;99.90
52273;DHT22;38227;50.942;4.016;2023-05-03T05:09:26;8.70;99.90
52273;DHT22;38227;50.942;4.016;2023-05-03T05:11:55;8.90;99.90
52273;DHT22;38227;50.942;4.016;2023-05-03T05:14:25;9.30;99.90
52273;DHT22;38227;50.942;4.016;2023-05-03T05:16:54;10.00;99.90
52273;DHT22;38227;50.942;4.016;2023-05-03T05:19:29;11.50;99.90
52273;DHT22;38227;50.942;4.016;2023-05-03T05:22:08;12.60;97.20
52273;DHT22;38227;50.942;4.016;2023-05-03T05:27:49;15.00;92.30
52273;DHT22;38227;50.942;4.016;2023-05-03T05:30:17;16.40;89.70
52273;DHT22;38227;50.942;4.016;2023-05-03T05:32:55;16.90;86.20
52273;DHT22;38227;50.942;4.016;2023-05-03T05:35:23;17.00;85.50
52273;DHT22;38227;50.942;4.016;2023-05-03T05:37:51;17.60;81.80
52273;DHT22;38227;50.942;4.016;2023-05-03T05:40:19;17.60;82.30
52273;DHT22;38227;50.942;4.016;2023-05-03T05:42:51;17.70;81.40
52273;DHT22;38227;50.942;4.016;2023-05-03T05:45:29;17.30;80.60
52273;DHT22;38227;50.942;4.016;2023-05-03T05:47:57;17.60;80.70
52273;DHT22;38227;50.942;4.016;2023-05-03T05:50:25;18.20;78.40
52273;DHT22;38227;50.942;4.016;2023-05-03T05:52:57;19.20;76.00
52273;DHT22;38227;50.942;4.016;2023-05-03T05:55:26;18.90;75.20
52273;DHT22;38227;50.942;4.016;2023-05-03T05:57:54;18.80;74.70
52273;DHT22;38227;50.942;4.016;2023-05-03T06:00:22;18.40;76.00
52273;DHT22;38227;50.942;4.016;2023-05-03T06:02:51;18.50;75.90
52273;DHT22;38227;50.942;4.016;2023-05-03T06:05:19;19.50;73.10
52273;DHT22;38227;50.942;4.016;2023-05-03T06:07:49;19.00;73.50
52273;DHT22;38227;50.942;4.016;2023-05-03T06:10:25;19.40;73.70
52273;DHT22;38227;50.942;4.016;2023-05-03T06:12:54;19.70;72.00
52273;DHT22;38227;50.942;4.016;2023-05-03T06:15:22;19.70;71.80
52273;DHT22;38227;50.942;4.016;2023-05-03T06:17:51;19.90;71.70
52273;DHT22;38227;50.942;4.016;2023-05-03T06:20:19;20.50;69.10
52273;DHT22;38227;50.942;4.016;2023-05-03T06:22:49;20.30;69.00
52273;DHT22;38227;50.942;4.016;2023-05-03T06:25:27;20.40;69.60
52273;DHT22;38227;50.942;4.016;2023-05-03T06:27:55;21.40;67.80
52273;DHT22;38227;50.942;4.016;2023-05-03T06:30:28;21.30;65.80
52273;DHT22;38227;50.942;4.016;2023-05-03T06:33:06;21.40;65.00
52273;DHT22;38227;50.942;4.016;2023-05-03T06:35:35;21.40;65.70
52273;DHT22;38227;50.942;4.016;2023-05-03T06:38:03;21.30;65.20
52273;DHT22;38227;50.942;4.016;2023-05-03T06:40:31;21.30;64.70
52273;DHT22;38227;50.942;4.016;2023-05-03T06:43:03;21.90;65.00
52273;DHT22;38227;50.942;4.016;2023-05-03T06:45:37;22.70;62.00
52273;DHT22;38227;50.942;4.016;2023-05-03T06:48:05;23.20;60.90
52273;DHT22;38227;50.942;4.016;2023-05-03T06:50:33;23.50;59.80
52273;DHT22;38227;50.942;4.016;2023-05-03T06:53:01;23.40;58.90
52273;DHT22;38227;50.942;4.016;2023-05-03T06:55:34;23.40;59.10
52273;DHT22;38227;50.942;4.016;2023-05-03T06:58:02;24.10;57.60
52273;DHT22;38227;50.942;4.016;2023-05-03T07:00:38;23.20;59.00
52273;DHT22;38227;50.942;4.016;2023-05-03T07:03:07;22.90;58.90
52273;DHT22;38227;50.942;4.016;2023-05-03T07:05:39;23.50;58.80
52273;DHT22;38227;50.942;4.016;2023-05-03T07:08:07;23.70;57.70
52273;DHT22;38227;50.942;4.016;2023-05-03T07:10:35;22.90;58.90
52273;DHT22;38227;50.942;4.016;2023-05-03T07:13:03;23.50;57.80
52273;DHT22;38227;50.942;4.016;2023-05-03T07:15:41;23.70;58.00
52273;DHT22;38227;50.942;4.016;2023-05-03T07:18:10;23.60;57.10
52273;DHT22;38227;50.942;4.016;2023-05-03T07:20:42;23.10;58.50
52273;DHT22;38227;50.942;4.016;2023-05-03T07:23:11;23.20;58.30
52273;DHT22;38227;50.942;4.016;2023-05-03T07:25:39;23.40;57.90
52273;DHT22;38227;50.942;4.016;2023-05-03T07:28:08;22.90;59.10
52273;DHT22;38227;50.942;4.016;2023-05-03T07:30:37;23.20;58.50
52273;DHT22;38227;50.942;4.016;2023-05-03T07:33:16;24.00;56.90
52273;DHT22;38227;50.942;4.016;2023-05-03T07:35:47;23.70;57.60
52273;DHT22;38227;50.942;4.016;2023-05-03T07:38:25;24.20;57.10
52273;DHT22;38227;50.942;4.016;2023-05-03T07:40:58;24.80;55.80
52273;DHT22;38227;50.942;4.016;2023-05-03T07:43:26;25.60;54.60
52273;DHT22;38227;50.942;4.016;2023-05-03T07:45:54;25.10;55.60
52273;DHT22;38227;50.942;4.016;2023-05-03T07:48:22;24.60;55.50
52273;DHT22;38227;50.942;4.016;2023-05-03T07:50:52;24.50;55.20
52273;DHT22;38227;50.942;4.016;2023-05-03T07:53:20;24.10;56.10
52273;DHT22;38227;50.942;4.016;2023-05-03T07:55:51;24.30;57.40
52273;DHT22;38227;50.942;4.016;2023-05-03T07:58:25;24.40;57.00
52273;DHT22;38227;50.942;4.016;2023-05-03T08:00:53;25.10;55.30
52273;DHT22;38227;50.942;4.016;2023-05-03T08:03:21;24.90;55.40
52273;DHT22;38227;50.942;4.016;2023-05-03T08:05:50;24.70;56.60
52273;DHT22;38227;50.942;4.016;2023-05-03T08:08:28;25.10;54.90
52273;DHT22;38227;50.942;4.016;2023-05-03T08:10:57;24.30;56.50
52273;DHT22;38227;50.942;4.016;2023-05-03T08:13:24;24.90;55.10
52273;DHT22;38227;50.942;4.016;2023-05-03T08:15:52;25.00;55.40
52273;DHT22;38227;50.942;4.016;2023-05-03T08:18:25;24.70;55.80
52273;DHT22;38227;50.942;4.016;2023-05-03T08:20:52;24.70;55.80
52273;DHT22;38227;50.942;4.016;2023-05-03T08:23:21;24.70;56.10
52273;DHT22;38227;50.942;4.016;2023-05-03T08:26:00;25.70;54.70
52273;DHT22;38227;50.942;4.016;2023-05-03T08:28:29;25.10;54.50
52273;DHT22;38227;50.942;4.016;2023-05-03T08:30:57;24.90;55.90
52273;DHT22;38227;50.942;4.016;2023-05-03T08:33:36;25.60;53.70
52273;DHT22;38227;50.942;4.016;2023-05-03T08:36:05;27.20;51.60
52273;DHT22;38227;50.942;4.016;2023-05-03T08:38:37;26.30;52.20
52273;DHT22;38227;50.942;4.016;2023-05-03T08:41:29;26.10;51.50
52273;DHT22;38227;50.942;4.016;2023-05-03T08:43:59;25.40;53.20
52273;DHT22;38227;50.942;4.016;2023-05-03T08:46:41;25.00;53.50
52273;DHT22;38227;50.942;4.016;2023-05-03T08:49:09;25.40;53.00
52273;DHT22;38227;50.942;4.016;2023-05-03T08:51:40;25.30;53.30
52273;DHT22;38227;50.942;4.016;2023-05-03T08:54:08;25.40;52.00
52273;DHT22;38227;50.942;4.016;2023-05-03T08:56:40;24.90;53.40
52273;DHT22;38227;50.942;4.016;2023-05-03T08:59:12;25.40;53.30
52273;DHT22;38227;50.942;4.016;2023-05-03T09:01:43;25.90;53.30
52273;DHT22;38227;50.942;4.016;2023-05-03T09:04:13;25.50;52.20
52273;DHT22;38227;50.942;4.016;2023-05-03T09:06:42;25.40;51.90
52273;DHT22;38227;50.942;4.016;2023-05-03T09:09:11;26.00;49.80
52273;DHT22;38227;50.942;4.016;2023-05-03T09:11:39;24.90;52.30
52273;DHT22;38227;50.942;4.016;2023-05-03T09:14:15;24.60;53.10
52273;DHT22;38227;50.942;4.016;2023-05-03T09:16:46;25.70;51.70
52273;DHT22;38227;50.942;4.016;2023-05-03T09:19:14;26.10;50.70
52273;DHT22;38227;50.942;4.016;2023-05-03T09:21:46;26.20;49.70
52273;DHT22;38227;50.942;4.016;2023-05-03T09:24:18;25.80;50.50
52273;DHT22;38227;50.942;4.016;2023-05-03T09:26:49;26.60;48.60
52273;DHT22;38227;50.942;4.016;2023-05-03T09:29:33;26.20;49.10
52273;DHT22;38227;50.942;4.016;2023-05-03T09:32:04;25.40;51.10
52273;DHT22;38227;50.942;4.016;2023-05-03T09:34:34;26.30;49.70
52273;DHT22;38227;50.942;4.016;2023-05-03T09:37:05;26.30;49.80
52273;DHT22;38227;50.942;4.016;2023-05-03T09:39:33;26.30;49.20
52273;DHT22;38227;50.942;4.016;2023-05-03T09:43:51;26.00;49.00
52273;DHT22;38227;50.942;4.016;2023-05-03T09:46:22;25.60;50.60
52273;DHT22;38227;50.942;4.016;2023-05-03T09:48:53;26.00;50.10
52273;DHT22;38227;50.942;4.016;2023-05-03T09:51:30;25.50;50.60
52273;DHT22;38227;50.942;4.016;2023-05-03T09:54:00;25.70;50.40
52273;DHT22;38227;50.942;4.016;2023-05-03T09:56:31;25.60;49.70
52273;DHT22;38227;50.942;4.016;2023-05-03T09:59:03;25.00;50.50
52273;DHT22;38227;50.942;4.016;2023-05-03T10:01:33;25.10;50.90
52273;DHT22;38227;50.942;4.016;2023-05-03T10:04:05;25.70;49.60
52273;DHT22;38227;50.942;4.016;2023-05-03T10:06:39;25.20;50.50
52273;DHT22;38227;50.942;4.016;2023-05-03T10:09:20;25.60;51.10
52273;DHT22;38227;50.942;4.016;2023-05-03T10:11:53;25.40;49.80
52273;DHT22;38227;50.942;4.016;2023-05-03T10:14:24;25.50;49.90
52273;DHT22;38227;50.942;4.016;2023-05-03T10:17:03;25.80;49.40
52273;DHT22;38227;50.942;4.016;2023-05-03T10:20:07;25.90;48.50
52273;DHT22;38227;50.942;4.016;2023-05-03T10:26:25;25.50;49.70
52273;DHT22;38227;50.942;4.016;2023-05-03T10:28:54;24.00;52.30
52273;DHT22;38227;50.942;4.016;2023-05-03T10:31:46;23.50;52.80
52273;DHT22;38227;50.942;4.016;2023-05-03T10:34:21;23.30;52.70
52273;DHT22;38227;50.942;4.016;2023-05-03T10:36:50;22.90;53.00
52273;DHT22;38227;50.942;4.016;2023-05-03T10:39:21;22.30;53.10
52273;DHT22;38227;50.942;4.016;2023-05-03T10:42:06;21.90;54.60
52273;DHT22;38227;50.942;4.016;2023-05-03T10:44:50;21.30;56.30
52273;DHT22;38227;50.942;4.016;2023-05-03T10:47:21;20.90;56.60
52273;DHT22;38227;50.942;4.016;2023-05-03T10:53:00;20.80;58.60
52273;DHT22;38227;50.942;4.016;2023-05-03T10:55:29;20.70;58.00
52273;DHT22;38227;50.942;4.016;2023-05-03T10:57:58;20.50;57.20
52273;DHT22;38227;50.942;4.016;2023-05-03T11:00:36;20.50;57.70
52273;DHT22;38227;50.942;4.016;2023-05-03T11:06:26;20.40;59.30
52273;DHT22;38227;50.942;4.016;2023-05-03T11:08:54;20.40;58.00
52273;DHT22;38227;50.942;4.016;2023-05-03T11:11:22;20.20;59.10
52273;DHT22;38227;50.942;4.016;2023-05-03T11:13:50;20.20;59.80
52273;DHT22;38227;50.942;4.016;2023-05-03T11:16:18;20.10;58.70
52273;DHT22;38227;50.942;4.016;2023-05-03T11:18:46;20.10;59.50
52273;DHT22;38227;50.942;4.016;2023-05-03T11:21:16;20.30;58.60
52273;DHT22;38227;50.942;4.016;2023-05-03T11:23:44;20.50;58.50
52273;DHT22;38227;50.942;4.016;2023-05-03T11:26:15;20.60;57.60
52273;DHT22;38227;50.942;4.016;2023-05-03T11:28:57;20.60;57.30
52273;DHT22;38227;50.942;4.016;2023-05-03T11:31:26;20.50;57.70
52273;DHT22;38227;50.942;4.016;2023-05-03T11:33:55;20.20;57.50
52273;DHT22;38227;50.942;4.016;2023-05-03T11:36:23;20.00;58.30
52273;DHT22;38227;50.942;4.016;2023-05-03T11:39:02;20.10;59.50
52273;DHT22;38227;50.942;4.016;2023-05-03T11:41:30;19.70;57.70
52273;DHT22;38227;50.942;4.016;2023-05-03T11:43:58;19.30;58.10
52273;DHT22;38227;50.942;4.016;2023-05-03T11:46:32;19.50;58.10
52273;DHT22;38227;50.942;4.016;2023-05-03T11:49:01;19.70;58.10
52273;DHT22;38227;50.942;4.016;2023-05-03T11:51:30;19.70;59.00
52273;DHT22;38227;50.942;4.016;2023-05-03T11:54:10;19.90;59.50
52273;DHT22;38227;50.942;4.016;2023-05-03T11:56:39;19.80;59.20
52273;DHT22;38227;50.942;4.016;2023-05-03T11:59:07;19.80;58.00
52273;DHT22;38227;50.942;4.016;2023-05-03T12:01:36;19.50;59.70
52273;DHT22;38227;50.942;4.016;2023-05-03T12:04:04;19.70;60.20
52273;DHT22;38227;50.942;4.016;2023-05-03T12:06:33;19.80;59.20
52273;DHT22;38227;50.942;4.016;2023-05-03T12:09:03;19.60;59.50
52273;DHT22;38227;50.942;4.016;2023-05-03T12:11:40;19.60;58.60
52273;DHT22;38227;50.942;4.016;2023-05-03T12:14:08;19.60;58.70
52273;DHT22;38227;50.942;4.016;2023-05-03T12:16:49;19.70;58.60
52273;DHT22;38227;50.942;4.016;2023-05-03T12:19:27;19.30;58.80
52273;DHT22;38227;50.942;4.016;2023-05-03T12:22:17;19.00;59.20
52273;DHT22;38227;50.942;4.016;2023-05-03T12:24:45;19.00;59.60
52273;DHT22;38227;50.942;4.016;2023-05-03T12:27:18;19.10;60.60
52273;DHT22;38227;50.942;4.016;2023-05-03T12:29:46;19.10;60.40
52273;DHT22;38227;50.942;4.016;2023-05-03T12:32:14;19.20;60.50
52273;DHT22;38227;50.942;4.016;2023-05-03T12:34:47;19.40;59.30
52273;DHT22;38227;50.942;4.016;2023-05-03T12:37:15;19.60;59.30
52273;DHT22;38227;50.942;4.016;2023-05-03T12:39:43;19.60;59.90
52273;DHT22;38227;50.942;4.016;2023-05-03T12:42:12;19.50;59.90
52273;DHT22;38227;50.942;4.016;2023-05-03T12:44:40;19.70;58.80
52273;DHT22;38227;50.942;4.016;2023-05-03T12:47:13;19.80;57.60
52273;DHT22;38227;50.942;4.016;2023-05-03T12:49:41;19.80;59.20
52273;DHT22;38227;50.942;4.016;2023-05-03T12:52:19;19.70;59.90
52273;DHT22;38227;50.942;4.016;2023-05-03T12:54:48;19.80;59.00
52273;DHT22;38227;50.942;4.016;2023-05-03T12:57:18;19.80;58.90
52273;DHT22;38227;50.942;4.016;2023-05-03T12:59:47;19.80;59.50
52273;DHT22;38227;50.942;4.016;2023-05-03T13:02:18;19.60;59.50
52273;DHT22;38227;50.942;4.016;2023-05-03T13:04:48;19.40;59.20
52273;DHT22;38227;50.942;4.016;2023-05-03T13:07:28;19.40;59.60
52273;DHT22;38227;50.942;4.016;2023-05-03T13:09:59;19.50;60.20
52273;DHT22;38227;50.942;4.016;2023-05-03T13:12:27;19.40;61.30
52273;DHT22;38227;50.942;4.016;2023-05-03T13:14:55;19.50;61.10
52273;DHT22;38227;50.942;4.016;2023-05-03T13:17:33;19.70;60.90
52273;DHT22;38227;50.942;4.016;2023-05-03T13:20:02;19.80;59.20
52273;DHT22;38227;50.942;4.016;2023-05-03T13:22:31;19.80;59.30
52273;DHT22;38227;50.942;4.016;2023-05-03T13:25:04;19.80;60.30
52273;DHT22;38227;50.942;4.016;2023-05-03T13:27:42;19.60;61.20
52273;DHT22;38227;50.942;4.016;2023-05-03T13:30:15;19.30;62.70
52273;DHT22;38227;50.942;4.016;2023-05-03T13:32:43;19.40;62.30
52273;DHT22;38227;50.942;4.016;2023-05-03T13:35:11;19.40;61.00
52273;DHT22;38227;50.942;4.016;2023-05-03T13:37:50;19.40;61.20
52273;DHT22;38227;50.942;4.016;2023-05-03T13:40:19;19.40;61.00
52273;DHT22;38227;50.942;4.016;2023-05-03T13:42:49;19.50;60.50
52273;DHT22;38227;50.942;4.016;2023-05-03T13:45:18;19.60;59.80
52273;DHT22;38227;50.942;4.016;2023-05-03T13:48:00;19.60;59.30
52273;DHT22;38227;50.942;4.016;2023-05-03T13:50:28;19.60;59.30
52273;DHT22;38227;50.942;4.016;2023-05-03T13:52:59;19.40;59.30
52273;DHT22;38227;50.942;4.016;2023-05-03T13:55:27;19.30;60.90
52273;DHT22;38227;50.942;4.016;2023-05-03T13:57:56;19.20;61.70
52273;DHT22;38227;50.942;4.016;2023-05-03T14:00:25;19.30;61.30
52273;DHT22;38227;50.942;4.016;2023-05-03T14:02:53;19.20;59.80
52273;DHT22;38227;50.942;4.016;2023-05-03T14:05:22;19.20;59.00
52273;DHT22;38227;50.942;4.016;2023-05-03T14:07:54;19.30;59.60
52273;DHT22;38227;50.942;4.016;2023-05-03T14:10:26;19.40;59.20
52273;DHT22;38227;50.942;4.016;2023-05-03T14:12:54;19.40;59.00
52273;DHT22;38227;50.942;4.016;2023-05-03T14:15:23;19.50;59.50
52273;DHT22;38227;50.942;4.016;2023-05-03T14:18:02;19.50;58.80
52273;DHT22;38227;50.942;4.016;2023-05-03T14:20:31;19.30;59.30
52273;DHT22;38227;50.942;4.016;2023-05-03T14:23:02;19.40;58.60
52273;DHT22;38227;50.942;4.016;2023-05-03T14:25:30;19.30;58.40
52273;DHT22;38227;50.942;4.016;2023-05-03T14:28:00;19.20;59.00
52273;DHT22;38227;50.942;4.016;2023-05-03T14:30:29;19.30;59.70
52273;DHT22;38227;50.942;4.016;2023-05-03T14:33:06;19.10;60.50
52273;DHT22;38227;50.942;4.016;2023-05-03T14:35:35;19.10;61.50
52273;DHT22;38227;50.942;4.016;2023-05-03T14:38:03;19.30;60.70
52273;DHT22;38227;50.942;4.016;2023-05-03T14:40:35;19.30;60.50
52273;DHT22;38227;50.942;4.016;2023-05-03T14:43:03;19.40;59.20
52273;DHT22;38227;50.942;4.016;2023-05-03T14:45:32;19.40;60.00
52273;DHT22;38227;50.942;4.016;2023-05-03T14:48:04;19.50;59.70
52273;DHT22;38227;50.942;4.016;2023-05-03T14:50:39;19.50;59.10
52273;DHT22;38227;50.942;4.016;2023-05-03T14:53:07;19.50;59.30
52273;DHT22;38227;50.942;4.016;2023-05-03T14:55:35;19.50;59.70
52273;DHT22;38227;50.942;4.016;2023-05-03T14:58:13;19.50;59.20
52273;DHT22;38227;50.942;4.016;2023-05-03T15:00:41;19.50;59.10
52273;DHT22;38227;50.942;4.016;2023-05-03T15:03:19;19.50;59.00
52273;DHT22;38227;50.942;4.016;2023-05-03T15:05:48;19.60;57.90
52273;DHT22;38227;50.942;4.016;2023-05-03T15:08:19;19.70;58.20
52273;DHT22;38227;50.942;4.016;2023-05-03T15:10:47;19.70;58.40
52273;DHT22;38227;50.942;4.016;2023-05-03T15:13:17;19.70;57.80
52273;DHT22;38227;50.942;4.016;2023-05-03T15:15:45;19.60;58.10
52273;DHT22;38227;50.942;4.016;2023-05-03T15:18:13;19.60;58.60
52273;DHT22;38227;50.942;4.016;2023-05-03T15:20:43;19.60;58.60
52273;DHT22;38227;50.942;4.016;2023-05-03T15:23:11;19.60;58.90
52273;DHT22;38227;50.942;4.016;2023-05-03T15:25:40;19.40;59.60
52273;DHT22;38227;50.942;4.016;2023-05-03T15:28:13;19.40;57.40
52273;DHT22;38227;50.942;4.016;2023-05-03T15:30:41;19.60;57.60
52273;DHT22;38227;50.942;4.016;2023-05-03T15:33:12;19.50;57.30
52273;DHT22;38227;50.942;4.016;2023-05-03T15:35:40;19.60;57.80
52273;DHT22;38227;50.942;4.016;2023-05-03T15:38:12;19.50;58.30
52273;DHT22;38227;50.942;4.016;2023-05-03T15:40:42;19.50;59.60
52273;DHT22;38227;50.942;4.016;2023-05-03T15:43:15;19.40;58.70
52273;DHT22;38227;50.942;4.016;2023-05-03T15:45:44;19.50;58.00
52273;DHT22;38227;50.942;4.016;2023-05-03T15:48:16;19.40;58.20
52273;DHT22;38227;50.942;4.016;2023-05-03T15:50:45;19.50;58.50
52273;DHT22;38227;50.942;4.016;2023-05-03T15:53:17;19.40;58.60
52273;DHT22;38227;50.942;4.016;2023-05-03T15:55:45;19.30;58.50
52273;DHT22;38227;50.942;4.016;2023-05-03T15:58:18;19.20;59.10
52273;DHT22;38227;50.942;4.016;2023-05-03T16:00:50;19.10;59.90
52273;DHT22;38227;50.942;4.016;2023-05-03T16:03:19;19.20;60.00
52273;DHT22;38227;50.942;4.016;2023-05-03T16:05:51;19.30;59.90
52273;DHT22;38227;50.942;4.016;2023-05-03T16:08:20;19.40;60.00
52273;DHT22;38227;50.942;4.016;2023-05-03T16:10:51;19.40;60.40
52273;DHT22;38227;50.942;4.016;2023-05-03T16:13:20;19.50;61.00
52273;DHT22;38227;50.942;4.016;2023-05-03T16:15:58;19.40;61.10
52273;DHT22;38227;50.942;4.016;2023-05-03T16:18:28;19.30;59.60
52273;DHT22;38227;50.942;4.016;2023-05-03T16:21:05;19.30;58.50
52273;DHT22;38227;50.942;4.016;2023-05-03T16:23:33;19.30;58.60
52273;DHT22;38227;50.942;4.016;2023-05-03T16:26:12;19.30;59.50
52273;DHT22;38227;50.942;4.016;2023-05-03T16:28:42;19.30;60.30